createdAt,value
2022-10-17T00:01:54.578Z,3.67
2022-10-17T00:06:56.150Z,3.45
2022-10-17T00:11:57.682Z,3.92
2022-10-17T00:16:59.183Z,3.80
2022-10-17T00:22:00.711Z,3.80
2022-10-17T00:27:02.259Z,3.95
2022-10-17T00:32:03.812Z,3.70
2022-10-17T00:37:05.469Z,3.72
2022-10-17T00:42:07.120Z,3.40
2022-10-17T00:47:13.859Z,3.80
2022-10-17T00:52:21.451Z,3.67
2022-10-17T00:57:22.991Z,3.60
2022-10-17T01:02:25.248Z,3.88
2022-10-17T01:07:30.810Z,4.00
2022-10-17T01:12:59.528Z,3.72
2022-10-17T01:18:22.279Z,4.30
2022-10-17T01:23:35.774Z,3.75
2022-10-17T01:29:11.013Z,4.78
2022-10-17T01:34:22.135Z,5.10
2022-10-17T01:39:28.106Z,5.45
2022-10-17T01:45:00.141Z,5.82
2022-10-17T01:50:14.115Z,6.13
2022-10-17T01:55:22.911Z,6.72
2022-10-17T02:00:26.245Z,8.15
2022-10-17T02:05:39.168Z,8.23
2022-10-17T02:11:01.975Z,9.75
2022-10-17T02:16:15.489Z,9.95
2022-10-17T02:21:41.966Z,11.05
2022-10-17T02:26:58.532Z,12.93
2022-10-17T02:32:04.593Z,12.00
2022-10-17T02:37:08.063Z,12.52
2022-10-17T02:42:11.672Z,15.02
2022-10-17T02:47:25.698Z,14.18
2022-10-17T02:52:31.032Z,15.60
2022-10-17T02:57:40.380Z,15.27
2022-10-17T03:02:52.937Z,15.60
2022-10-17T03:07:55.531Z,16.75
2022-10-17T03:12:58.808Z,16.42
2022-10-17T03:18:00.450Z,17.95
2022-10-17T03:23:02.214Z,17.58
2022-10-17T03:28:05.516Z,17.27
2022-10-17T03:33:07.838Z,18.95
2022-10-17T03:38:09.476Z,17.45
2022-10-17T03:43:11.880Z,17.92
2022-10-17T03:48:14.728Z,17.70
2022-10-17T03:53:16.462Z,18.65
2022-10-17T03:58:18.070Z,18.88
2022-10-17T04:03:19.689Z,18.00
2022-10-17T04:08:22.170Z,19.73
2022-10-17T04:13:38.976Z,19.63
2022-10-17T04:18:41.678Z,19.98
2022-10-17T04:23:43.367Z,20.77
2022-10-17T04:28:56.557Z,19.90
2022-10-17T04:33:58.144Z,20.23
2022-10-17T04:39:02.910Z,19.65
2022-10-17T04:44:05.489Z,19.90
2022-10-17T04:49:11.250Z,21.13
2022-10-17T04:54:17.118Z,20.45
2022-10-17T04:59:22.189Z,21.98
2022-10-17T05:04:33.308Z,22.77
2022-10-17T05:09:35.412Z,22.08
2022-10-17T05:14:36.920Z,22.55
2022-10-17T05:19:38.942Z,22.25
2022-10-17T05:24:41.973Z,23.10
2022-10-17T05:29:45.649Z,22.92
2022-10-17T05:34:59.026Z,22.00
2022-10-17T05:40:01.436Z,23.85
2022-10-17T05:45:05.070Z,24.85
2022-10-17T05:50:08.530Z,24.27
2022-10-17T05:55:24.701Z,24.35
2022-10-17T06:00:26.877Z,23.98
2022-10-17T06:05:35.308Z,24.50
2022-10-17T06:10:38.458Z,23.35
2022-10-17T06:15:40.335Z,24.85
2022-10-17T06:20:45.409Z,24.80
2022-10-17T06:25:49.366Z,25.35
2022-10-17T06:30:51.814Z,24.65
2022-10-17T06:35:54.824Z,25.83
2022-10-17T06:41:09.641Z,24.55
2022-10-17T06:46:11.265Z,25.65
2022-10-17T06:51:16.800Z,24.90
2022-10-17T06:56:28.841Z,23.65
2022-10-17T07:01:46.086Z,23.45
2022-10-17T07:06:49.303Z,24.45
2022-10-17T07:11:54.063Z,25.30
2022-10-17T07:16:56.715Z,24.33
2022-10-17T07:21:59.781Z,23.77
2022-10-17T07:27:02.206Z,23.67
2022-10-17T07:32:06.454Z,23.55
2022-10-17T07:37:09.939Z,24.90
2022-10-17T07:42:14.567Z,23.35
2022-10-17T07:47:16.365Z,23.35
2022-10-17T07:52:18.479Z,23.50
2022-10-17T07:57:19.966Z,24.00
2022-10-17T08:02:24.499Z,22.38
2022-10-17T08:07:29.372Z,22.98
2022-10-17T08:12:34.192Z,23.38
2022-10-17T08:17:37.114Z,22.40
2022-10-17T08:22:38.606Z,21.08
2022-10-17T08:27:40.104Z,22.50
2022-10-17T08:32:41.996Z,21.83
2022-10-17T08:37:43.667Z,21.45
2022-10-17T08:43:10.939Z,21.70
2022-10-17T08:48:21.644Z,22.02
2022-10-17T08:53:38.505Z,20.55
2022-10-17T08:58:40.045Z,21.40
2022-10-17T09:04:12.955Z,20.98
2022-10-17T09:09:36.633Z,22.67
2022-10-17T09:14:48.734Z,20.58
2022-10-17T09:20:00.860Z,22.80
2022-10-17T09:25:07.291Z,20.83
2022-10-17T09:30:45.799Z,21.73
2022-10-17T09:35:48.578Z,21.20
2022-10-17T09:40:57.868Z,21.85
2022-10-17T09:46:22.615Z,20.45
2022-10-17T09:51:26.175Z,20.73
2022-10-17T09:56:28.038Z,20.67
2022-10-17T10:01:31.188Z,20.92
2022-10-17T10:06:33.066Z,21.27
2022-10-17T10:11:49.877Z,21.13
2022-10-17T10:16:53.749Z,20.52
2022-10-17T10:22:25.387Z,19.00
2022-10-17T10:27:27.935Z,20.77
2022-10-17T10:32:32.359Z,19.58
2022-10-17T10:37:40.159Z,19.77
2022-10-17T10:42:42.280Z,19.52
2022-10-17T10:47:58.648Z,19.10
2022-10-17T10:53:24.859Z,17.38
2022-10-17T10:58:42.026Z,17.20
2022-10-17T11:04:12.329Z,17.55
2022-10-17T11:09:24.282Z,18.13
2022-10-17T11:14:41.860Z,17.55
2022-10-17T11:19:56.491Z,18.52
2022-10-17T11:24:59.773Z,17.35
2022-10-17T11:30:01.710Z,17.30
2022-10-17T11:35:15.361Z,17.38
2022-10-17T11:40:31.382Z,18.23
2022-10-17T11:45:41.008Z,16.90
2022-10-17T11:56:10.023Z,16.33
2022-10-17T12:01:26.495Z,16.60
2022-10-17T12:06:48.099Z,15.80
2022-10-17T12:12:00.496Z,15.55
2022-10-17T12:17:02.706Z,15.23
2022-10-17T12:22:20.162Z,13.98
2022-10-17T12:27:32.700Z,14.88
2022-10-17T12:33:00.480Z,15.02
2022-10-17T12:37:58.771Z,15.13
2022-10-17T12:43:16.300Z,14.65
2022-10-17T12:48:36.295Z,14.95
2022-10-17T12:53:45.262Z,15.82
2022-10-17T12:58:49.127Z,15.70
2022-10-17T13:03:52.493Z,15.32
2022-10-17T13:09:04.161Z,14.57
2022-10-17T13:14:13.099Z,14.70
2022-10-17T13:19:17.748Z,15.35
2022-10-17T13:24:23.782Z,14.80
2022-10-17T13:29:25.956Z,15.20
2022-10-17T13:34:28.100Z,15.05
2022-10-17T13:39:52.447Z,16.50
2022-10-17T13:44:55.967Z,15.60
2022-10-17T13:49:58.066Z,15.23
2022-10-17T13:55:11.081Z,15.43
2022-10-17T14:00:20.861Z,14.75
2022-10-17T14:05:23.677Z,14.13
2022-10-17T14:10:27.461Z,13.85
2022-10-17T14:15:30.955Z,14.45
2022-10-17T14:21:29.209Z,15.05
2022-10-17T14:26:21.473Z,15.48
2022-10-17T14:31:26.108Z,15.30
2022-10-17T14:36:38.549Z,14.95
2022-10-17T14:41:44.215Z,14.60
2022-10-17T14:46:50.498Z,15.05
2022-10-17T14:52:18.382Z,15.55
2022-10-17T14:57:29.103Z,16.65
2022-10-17T15:02:31.144Z,16.17
2022-10-17T15:07:32.854Z,16.55
2022-10-17T15:12:34.454Z,17.00
2022-10-17T15:17:35.970Z,17.27
2022-10-17T15:22:37.484Z,17.58
2022-10-17T15:27:39.064Z,16.98
2022-10-17T15:32:40.562Z,16.75
2022-10-17T15:37:42.912Z,18.63
2022-10-17T15:42:44.518Z,17.23
2022-10-17T15:47:51.646Z,18.38
2022-10-17T15:52:53.486Z,18.65
2022-10-17T15:57:55.001Z,19.08
2022-10-17T16:02:56.546Z,17.75
2022-10-17T16:07:58.373Z,19.15
2022-10-17T16:12:59.856Z,18.13
2022-10-17T16:18:04.238Z,18.33
2022-10-17T16:23:08.450Z,18.33
2022-10-17T16:28:11.842Z,18.92
2022-10-17T16:33:13.577Z,19.55
2022-10-17T16:38:15.146Z,19.73
2022-10-17T16:43:16.634Z,19.05
2022-10-17T16:48:18.183Z,19.75
2022-10-17T16:53:19.729Z,19.42
2022-10-17T16:58:21.226Z,19.65
2022-10-17T17:03:22.744Z,20.60
2022-10-17T17:08:24.305Z,19.58
2022-10-17T17:13:26.552Z,20.33
2022-10-17T17:18:28.700Z,20.35
2022-10-17T17:23:31.028Z,20.63
2022-10-17T17:28:33.571Z,20.88
2022-10-17T17:33:35.152Z,20.55
2022-10-17T17:38:36.960Z,21.17
2022-10-17T17:43:38.438Z,20.88
2022-10-17T17:48:41.082Z,22.02
2022-10-17T17:53:42.607Z,21.90
2022-10-17T17:58:46.637Z,22.60
2022-10-17T18:03:49.866Z,21.35
2022-10-17T18:08:53.532Z,22.92
2022-10-17T18:13:56.856Z,23.05
2022-10-17T18:19:02.608Z,22.48
2022-10-17T18:24:07.851Z,22.63
2022-10-17T18:29:09.401Z,22.65
2022-10-17T18:34:10.893Z,22.60
2022-10-17T18:39:12.427Z,22.35
2022-10-17T18:44:15.437Z,22.60
2022-10-17T18:49:25.034Z,23.20
2022-10-17T18:54:26.795Z,23.42
2022-10-17T18:59:28.330Z,23.88
2022-10-17T19:04:29.844Z,23.80
2022-10-17T19:09:31.473Z,24.27
2022-10-17T19:14:33.005Z,23.92
2022-10-17T19:19:34.576Z,24.42
2022-10-17T19:24:36.105Z,24.25
2022-10-17T19:29:38.012Z,24.08
2022-10-17T19:34:39.498Z,24.65
2022-10-17T19:39:40.969Z,25.10
2022-10-17T19:44:42.462Z,24.63
2022-10-17T19:49:49.064Z,24.15
2022-10-17T19:54:51.508Z,25.67
2022-10-17T19:59:55.830Z,26.38
2022-10-17T20:05:13.890Z,23.70
2022-10-17T20:10:19.272Z,25.13
2022-10-17T20:15:20.806Z,24.30
2022-10-17T20:20:22.337Z,24.65
2022-10-17T20:25:23.909Z,24.25
2022-10-17T20:30:25.584Z,24.42
2022-10-17T20:35:27.137Z,24.42
2022-10-17T20:40:36.112Z,25.05
2022-10-17T20:45:50.649Z,25.67
2022-10-17T20:50:53.618Z,23.80
2022-10-17T20:56:07.206Z,24.48
2022-10-17T21:01:10.118Z,24.33
2022-10-17T21:06:11.736Z,24.23
2022-10-17T21:11:19.037Z,23.27
2022-10-17T21:16:20.609Z,24.58
2022-10-17T21:21:26.617Z,24.80
2022-10-17T21:26:29.154Z,25.05
2022-10-17T21:31:30.894Z,25.13
2022-10-17T21:36:32.489Z,24.30
2022-10-17T21:41:34.129Z,26.20
2022-10-17T21:46:35.609Z,25.48
2022-10-17T21:51:37.136Z,23.60
2022-10-17T21:56:38.702Z,23.65
2022-10-17T22:01:43.909Z,25.40
2022-10-17T22:06:47.558Z,25.15
2022-10-17T22:11:51.851Z,27.20
2022-10-17T22:16:53.625Z,26.08
2022-10-17T22:21:55.161Z,26.80
2022-10-17T22:26:56.722Z,26.35
2022-10-17T22:31:58.476Z,25.15
2022-10-17T22:37:00.185Z,26.25
2022-10-17T22:42:01.695Z,26.58
2022-10-17T22:47:03.365Z,26.08
2022-10-17T22:52:04.980Z,26.52
2022-10-17T22:57:06.520Z,27.10
2022-10-17T23:02:08.043Z,24.90
2022-10-17T23:07:13.965Z,24.92
2022-10-17T23:12:15.473Z,25.27
2022-10-17T23:17:17.016Z,25.13
2022-10-17T23:22:18.527Z,27.45
2022-10-17T23:27:20.094Z,25.33
2022-10-17T23:32:21.609Z,25.30
2022-10-17T23:37:23.147Z,25.48
2022-10-17T23:42:24.713Z,24.92
2022-10-17T23:47:26.213Z,25.40
2022-10-17T23:52:27.754Z,24.75
2022-10-17T23:57:29.617Z,24.63
